Time;durP1;ratioP1;P1;durP2;ratioP2;P2;SDS_P1;SDS_P2;PMS_P1;PMS_P2;Temp;Humidity;BMP_temperature;BMP_pressure;BME280_temperature;BME280_humidity;BME280_pressure;Samples;Min_cycle;Max_cycle;Signal;HPM_P1;HPM_P2
2023/02/04 00:01:03;;;;;;;12.35;8.00;;;5.90;99.90;;;;;;6199677;23;20087;-83
2023/02/04 00:03:51;;;;;;;9.90;7.20;;;5.90;99.90;;;;;;6202449;23;20115;-82
2023/02/04 00:06:38;;;;;;;12.68;7.70;;;5.80;99.90;;;;;;6207871;23;20032;-81
2023/02/04 00:09:25;;;;;;;11.70;7.75;;;5.80;99.90;;;;;;6207395;23;20055;-82
2023/02/04 00:12:13;;;;;;;10.18;7.28;;;5.90;99.90;;;;;;6184662;23;20025;-82
2023/02/04 00:15:01;;;;;;;12.43;6.93;;;5.80;99.90;;;;;;6183965;23;20372;-84
2023/02/04 00:17:48;;;;;;;12.70;8.60;;;5.80;99.90;;;;;;6183928;23;20021;-84
2023/02/04 00:20:35;;;;;;;12.98;8.95;;;5.80;99.90;;;;;;6183558;23;20057;-83
2023/02/04 00:24:01;;;;;;;12.90;8.48;;;5.80;99.90;;;;;;6183969;23;20028;-83
2023/02/04 00:26:48;;;;;;;10.63;8.18;;;5.80;99.90;;;;;;6121176;23;20160;-83
2023/02/04 00:29:36;;;;;;;11.82;8.25;;;5.70;99.90;;;;;;6155365;23;20305;-83
2023/02/04 00:32:23;;;;;;;11.40;8.25;;;5.70;99.90;;;;;;6184337;23;20033;-84
2023/02/04 00:35:11;;;;;;;10.82;7.80;;;5.70;99.90;;;;;;6165936;23;20021;-82
2023/02/04 00:37:58;;;;;;;11.25;7.22;;;5.70;99.90;;;;;;6168421;23;20087;-84
2023/02/04 00:40:45;;;;;;;9.77;6.68;;;5.70;99.90;;;;;;6165622;23;20029;-84
2023/02/04 00:43:33;;;;;;;11.35;6.68;;;5.70;99.90;;;;;;6184597;23;20103;-84
2023/02/04 00:46:20;;;;;;;11.82;5.70;;;5.70;99.90;;;;;;6185466;23;20048;-82
2023/02/04 00:49:09;;;;;;;7.97;5.57;;;5.70;99.90;;;;;;6186218;23;20025;-85
2023/02/04 00:52:12;;;;;;;8.68;5.55;;;5.70;99.90;;;;;;6183983;23;20036;-85
2023/02/04 00:55:16;;;;;;;8.95;5.13;;;5.70;99.90;;;;;;6164381;23;20021;-83
2023/02/04 00:58:04;;;;;;;7.13;4.85;;;5.70;99.90;;;;;;6184139;23;20100;-84
2023/02/04 01:00:53;;;;;;;8.98;4.82;;;5.70;99.90;;;;;;6185384;23;20021;-83
2023/02/04 01:03:40;;;;;;;5.78;4.72;;;5.70;99.90;;;;;;6184226;23;20025;-82
2023/02/04 01:06:28;;;;;;;6.07;4.65;;;5.70;99.90;;;;;;6184648;23;20025;-83
2023/02/04 01:09:16;;;;;;;6.18;4.57;;;5.70;99.90;;;;;;6182978;23;20029;-85
2023/02/04 01:12:06;;;;;;;5.07;3.85;;;5.70;99.90;;;;;;6182770;23;20131;-87
2023/02/04 01:14:54;;;;;;;4.93;3.63;;;5.70;99.90;;;;;;6183795;23;20032;-85
2023/02/04 01:17:41;;;;;;;5.50;4.05;;;5.70;99.90;;;;;;6161270;23;20317;-85
2023/02/04 01:20:28;;;;;;;5.93;3.90;;;5.70;99.90;;;;;;6161395;23;20037;-85
2023/02/04 01:23:21;;;;;;;4.28;3.40;;;5.80;99.90;;;;;;6167962;23;20108;-82
2023/02/04 01:26:08;;;;;;;4.47;3.53;;;5.70;99.90;;;;;;6184958;23;20432;-84
2023/02/04 01:28:55;;;;;;;3.67;3.17;;;5.70;99.90;;;;;;6168778;23;20338;-84
2023/02/04 01:31:43;;;;;;;3.85;3.45;;;5.70;99.90;;;;;;6152234;23;20053;-82
2023/02/04 01:34:30;;;;;;;4.55;3.58;;;5.70;99.90;;;;;;6151921;23;20057;-82
2023/02/04 01:37:20;;;;;;;4.65;3.33;;;5.70;99.90;;;;;;6152764;23;20182;-83
2023/02/04 01:40:09;;;;;;;5.72;4.00;;;5.70;99.90;;;;;;6151745;23;20333;-83
2023/02/04 01:42:57;;;;;;;4.05;3.50;;;5.70;99.90;;;;;;6133758;23;20033;-83
2023/02/04 01:45:47;;;;;;;5.07;3.55;;;5.70;99.90;;;;;;6151833;23;20388;-83
2023/02/04 01:48:34;;;;;;;4.10;3.55;;;5.80;99.90;;;;;;6156632;23;20026;-84
2023/02/04 01:51:27;;;;;;;5.15;3.22;;;5.70;99.90;;;;;;6153983;23;20021;-84
2023/02/04 01:54:16;;;;;;;4.72;3.75;;;5.70;99.90;;;;;;6155249;23;20064;-85
2023/02/04 01:57:09;;;;;;;5.40;3.60;;;5.70;99.90;;;;;;6154444;23;20065;-83
2023/02/04 01:59:56;;;;;;;4.18;3.58;;;5.70;99.90;;;;;;6154734;23;20039;-82
2023/02/04 02:02:49;;;;;;;4.35;3.42;;;5.70;99.90;;;;;;6154832;23;20034;-84
2023/02/04 02:05:36;;;;;;;4.65;2.95;;;5.70;99.90;;;;;;6133176;23;20176;-86
2023/02/04 02:08:25;;;;;;;4.50;3.35;;;5.70;99.90;;;;;;6155364;23;20092;-83
2023/02/04 02:11:15;;;;;;;4.30;3.70;;;5.70;99.90;;;;;;6161149;23;20096;-83
2023/02/04 02:14:05;;;;;;;4.80;4.05;;;5.70;99.90;;;;;;6155362;23;20357;-85
2023/02/04 02:16:53;;;;;;;4.82;4.25;;;5.70;99.90;;;;;;6154765;23;20100;-84
2023/02/04 02:19:41;;;;;;;6.32;4.00;;;5.70;99.90;;;;;;6133848;23;20033;-84
2023/02/04 02:22:39;;;;;;;7.20;3.90;;;5.70;99.90;;;;;;6155469;23;20411;-85
2023/02/04 02:25:27;;;;;;;9.15;4.80;;;5.70;99.90;;;;;;6154388;23;20112;-85
2023/02/04 02:28:19;;;;;;;11.48;4.43;;;5.60;99.90;;;;;;6134264;23;20057;-84
2023/02/04 02:31:07;;;;;;;;;;;5.60;99.90;;;;;;6156937;23;20026;-90
2023/02/04 02:33:58;;;;;;;7.80;3.88;;;5.50;99.90;;;;;;6155026;23;20014;-85
2023/02/04 02:36:45;;;;;;;10.27;3.70;;;5.50;99.90;;;;;;6154381;23;20123;-85
2023/02/04 02:39:37;;;;;;;9.43;3.40;;;5.40;99.90;;;;;;6132266;23;20034;-84
2023/02/04 02:42:27;;;;;;;8.40;3.58;;;5.20;99.90;;;;;;6155518;23;20041;-86
2023/02/04 02:45:25;;;;;;;7.50;3.20;;;5.20;99.90;;;;;;6154694;23;20037;-86
2023/02/04 02:48:13;;;;;;;5.70;2.92;;;5.20;99.90;;;;;;6154442;23;20095;-86
2023/02/04 02:51:01;;;;;;;8.93;3.75;;;5.20;99.90;;;;;;6154107;23;20192;-84
2023/02/04 02:53:49;;;;;;;10.50;3.85;;;5.20;99.90;;;;;;6153863;23;20025;-85
2023/02/04 02:56:39;;;;;;;9.07;3.83;;;5.10;99.90;;;;;;6153238;23;20025;-84
2023/02/04 02:59:28;;;;;;;11.57;4.40;;;5.10;99.90;;;;;;6161911;23;20064;-85
2023/02/04 03:02:20;;;;;;;13.48;3.50;;;5.10;99.90;;;;;;6134925;23;20037;-86
2023/02/04 03:05:08;;;;;;;9.73;2.95;;;5.10;99.90;;;;;;6153909;23;20025;-85
2023/02/04 03:07:55;;;;;;;7.13;3.20;;;5.10;99.90;;;;;;6154650;23;20025;-83
2023/02/04 03:10:47;;;;;;;12.32;3.45;;;5.10;99.90;;;;;;6134077;23;20064;-87
2023/02/04 03:13:35;;;;;;;9.20;3.20;;;5.10;99.90;;;;;;6153109;23;20149;-85
2023/02/04 03:16:25;;;;;;;9.07;2.90;;;5.10;99.90;;;;;;6153464;23;20049;-87
2023/02/04 03:19:12;;;;;;;8.57;3.00;;;5.10;99.90;;;;;;6153262;23;20029;-84
2023/02/04 03:21:59;;;;;;;11.55;3.75;;;5.10;99.90;;;;;;6133485;23;20065;-85
2023/02/04 03:24:47;;;;;;;9.15;3.35;;;5.20;99.90;;;;;;6153659;23;20040;-86
2023/02/04 03:27:34;;;;;;;6.05;2.90;;;5.20;99.90;;;;;;6153705;23;20040;-85
2023/02/04 03:30:24;;;;;;;10.30;3.70;;;5.20;99.90;;;;;;6153809;23;20060;-84
2023/02/04 03:33:12;;;;;;;5.00;3.55;;;5.20;99.90;;;;;;6154113;23;20277;-84
2023/02/04 03:35:59;;;;;;;6.50;3.60;;;5.20;99.90;;;;;;6154539;23;20037;-84
2023/02/04 03:38:46;;;;;;;10.30;3.92;;;5.10;99.90;;;;;;6154600;23;20423;-84
2023/02/04 03:41:33;;;;;;;12.48;4.25;;;5.10;99.90;;;;;;6154134;23;20100;-84
2023/02/04 03:44:21;;;;;;;10.23;3.50;;;5.10;99.90;;;;;;6135562;23;20057;-84
2023/02/04 03:47:10;;;;;;;9.73;4.10;;;5.10;99.90;;;;;;6161008;23;20357;-85
2023/02/04 03:49:58;;;;;;;7.07;3.67;;;5.20;99.90;;;;;;6154711;23;20025;-86
2023/02/04 03:52:45;;;;;;;13.75;4.40;;;5.20;99.90;;;;;;6134262;23;20026;-86
2023/02/04 03:55:34;;;;;;;9.90;4.30;;;5.10;99.90;;;;;;6135309;23;20017;-86
2023/02/04 03:58:26;;;;;;;14.35;5.60;;;5.10;99.90;;;;;;6136377;23;20498;-86
2023/02/04 04:01:13;;;;;;;20.83;6.57;;;5.10;99.90;;;;;;6135662;23;20100;-90
2023/02/04 04:04:01;;;;;;;15.80;6.18;;;5.00;99.90;;;;;;6155694;23;20253;-87
2023/02/04 04:06:48;;;;;;;23.13;5.75;;;5.00;99.90;;;;;;6156287;23;20033;-86
2023/02/04 04:09:35;;;;;;;15.55;6.18;;;4.90;99.90;;;;;;6136055;23;20036;-86
2023/02/04 04:12:30;;;;;;;22.90;6.30;;;4.90;99.90;;;;;;6164244;23;20478;-85
2023/02/04 04:15:17;;;;;;;22.13;7.35;;;4.80;99.90;;;;;;6162867;23;20071;-87
2023/02/04 04:18:04;;;;;;;16.65;6.45;;;4.70;99.90;;;;;;6156134;23;20096;-85
2023/02/04 04:20:54;;;;;;;22.52;7.10;;;4.70;99.90;;;;;;6156145;23;20551;-88
2023/02/04 04:23:41;;;;;;;26.52;7.38;;;4.70;99.90;;;;;;6155368;23;20040;-87
2023/02/04 04:26:31;;;;;;;28.02;7.35;;;4.70;99.90;;;;;;6135027;23;20021;-87
2023/02/04 04:29:18;;;;;;;28.30;7.88;;;4.70;99.90;;;;;;6155406;23;20123;-86
2023/02/04 04:32:06;;;;;;;17.83;6.68;;;4.70;99.90;;;;;;6155868;23;20025;-85
2023/02/04 04:34:53;;;;;;;20.17;7.30;;;4.70;99.90;;;;;;6160568;23;20026;-86
2023/02/04 04:37:48;;;;;;;23.83;6.93;;;4.60;99.90;;;;;;6154650;23;20021;-86
2023/02/04 04:40:38;;;;;;;12.73;6.45;;;4.60;99.90;;;;;;6155441;23;20030;-87
2023/02/04 04:43:44;;;;;;;23.25;7.20;;;4.60;99.90;;;;;;6153753;23;20308;-86
2023/02/04 04:46:34;;;;;;;17.98;6.53;;;4.60;99.90;;;;;;6153070;23;20029;-87
2023/02/04 04:49:21;;;;;;;21.45;7.38;;;4.60;99.90;;;;;;6155536;23;20424;-86
2023/02/04 04:52:09;;;;;;;21.88;7.38;;;4.60;99.90;;;;;;6154412;23;20124;-86
2023/02/04 04:54:56;;;;;;;20.15;7.95;;;4.60;99.90;;;;;;6155111;23;20044;-85
2023/02/04 04:57:50;;;;;;;20.80;7.00;;;4.60;99.90;;;;;;6152455;23;20021;-87
2023/02/04 05:00:37;;;;;;;18.55;7.35;;;4.60;99.90;;;;;;6133963;23;20318;-86
2023/02/04 05:04:06;;;;;;;24.35;8.52;;;4.50;99.90;;;;;;6158477;23;20061;-86
2023/02/04 05:07:21;;;;;;;19.98;7.88;;;4.50;99.90;;;;;;6145697;23;20017;-85
2023/02/04 05:10:15;;;;;;;17.40;7.45;;;4.50;99.90;;;;;;6122759;23;20049;-86
2023/02/04 05:13:02;;;;;;;18.60;8.40;;;4.50;99.90;;;;;;6155360;23;20029;-86
2023/02/04 05:15:49;;;;;;;20.65;8.43;;;4.60;99.90;;;;;;6153838;23;20115;-86
2023/02/04 05:18:37;;;;;;;22.25;9.13;;;4.60;99.90;;;;;;6132583;23;20487;-86
2023/02/04 05:21:25;;;;;;;22.33;8.82;;;4.50;99.90;;;;;;6153183;23;20407;-87
2023/02/04 05:24:12;;;;;;;20.45;8.40;;;4.60;99.90;;;;;;6157702;23;20036;-85
2023/02/04 05:27:03;;;;;;;17.23;9.85;;;4.60;99.90;;;;;;6140585;23;20067;-86
2023/02/04 05:29:50;;;;;;;29.17;11.75;;;4.60;99.90;;;;;;6152674;23;20057;-85
2023/02/04 05:32:37;;;;;;;22.83;10.70;;;4.60;99.90;;;;;;6153721;23;20064;-86
2023/02/04 05:35:27;;;;;;;22.50;10.30;;;4.50;99.90;;;;;;6152433;23;20049;-87
2023/02/04 05:38:14;;;;;;;25.88;9.90;;;4.50;99.90;;;;;;6154593;23;20026;-85
2023/02/04 05:41:01;;;;;;;22.02;9.90;;;4.50;99.90;;;;;;6153696;23;20025;-86
2023/02/04 05:43:48;;;;;;;28.42;9.63;;;4.50;99.90;;;;;;6134360;23;20029;-87
2023/02/04 05:46:39;;;;;;;18.38;8.32;;;4.50;99.90;;;;;;6155492;23;20060;-83
2023/02/04 05:49:26;;;;;;;22.90;8.88;;;4.50;99.90;;;;;;6153833;23;20033;-87
2023/02/04 05:52:15;;;;;;;21.85;8.90;;;4.40;99.90;;;;;;6152933;23;20133;-86
2023/02/04 05:55:03;;;;;;;34.10;9.85;;;4.50;99.90;;;;;;6130435;23;20448;-85
2023/02/04 05:57:50;;;;;;;21.80;8.93;;;4.50;99.90;;;;;;6153470;23;20025;-86
2023/02/04 06:00:38;;;;;;;26.10;8.55;;;4.50;99.90;;;;;;6133605;23;20045;-85
2023/02/04 06:03:28;;;;;;;21.23;8.30;;;4.40;99.90;;;;;;6158033;23;20030;-85
2023/02/04 06:06:25;;;;;;;26.67;9.75;;;4.40;99.90;;;;;;6156245;23;20370;-85
2023/02/04 06:09:13;;;;;;;22.88;8.50;;;4.40;99.90;;;;;;6137176;23;20025;-85
2023/02/04 06:14:52;;;;;;;20.23;9.07;;;4.40;99.90;;;;;;6162857;23;20017;-86
2023/02/04 06:17:42;;;;;;;32.30;9.35;;;4.40;99.90;;;;;;6161388;23;20029;-84
2023/02/04 06:20:30;;;;;;;31.35;9.48;;;4.30;99.90;;;;;;6137828;23;20041;-85
2023/02/04 06:23:23;;;;;;;21.65;8.40;;;4.40;99.90;;;;;;6159134;23;20049;-85
2023/02/04 06:26:12;;;;;;;31.88;9.27;;;4.30;99.90;;;;;;6154111;23;20029;-84
2023/02/04 06:29:01;;;;;;;24.25;8.85;;;4.30;99.90;;;;;;6157481;23;20041;-86
2023/02/04 06:31:48;;;;;;;27.15;9.57;;;4.30;99.90;;;;;;6155790;23;20551;-87
2023/02/04 06:34:50;;;;;;;33.40;9.50;;;4.40;99.90;;;;;;6135218;23;20033;-82
2023/02/04 06:37:37;;;;;;;21.58;10.02;;;4.40;99.90;;;;;;6155113;23;20034;-83
2023/02/04 06:40:24;;;;;;;40.92;10.60;;;4.30;99.90;;;;;;6157503;23;20042;-84
2023/02/04 06:43:11;;;;;;;29.15;10.30;;;4.30;99.90;;;;;;6135171;23;20029;-85
2023/02/04 06:45:58;;;;;;;26.50;10.88;;;4.30;99.90;;;;;;6156049;23;20036;-86
2023/02/04 06:48:45;;;;;;;46.20;14.20;;;4.30;99.90;;;;;;6156208;23;20025;-84
2023/02/04 06:51:33;;;;;;;39.85;12.65;;;4.30;99.90;;;;;;6155035;23;20093;-84
2023/02/04 06:54:20;;;;;;;29.40;13.05;;;4.30;99.90;;;;;;6154544;23;20025;-83
2023/02/04 06:57:08;;;;;;;29.70;13.18;;;4.30;99.90;;;;;;6138214;23;20104;-83
2023/02/04 06:59:55;;;;;;;35.60;12.30;;;4.30;99.90;;;;;;6147271;23;20037;-83
2023/02/04 07:02:44;;;;;;;34.78;13.82;;;4.30;99.90;;;;;;6158411;23;20029;-86
2023/02/04 07:05:37;;;;;;;43.38;14.27;;;4.30;99.90;;;;;;6135175;23;20052;-83
2023/02/04 07:08:24;;;;;;;43.50;15.43;;;4.20;99.90;;;;;;6153559;23;20033;-84
2023/02/04 07:11:12;;;;;;;36.40;13.32;;;4.20;99.90;;;;;;6131639;23;20033;-85
2023/02/04 07:14:01;;;;;;;39.25;14.70;;;4.20;99.90;;;;;;6154870;23;20249;-84
2023/02/04 07:16:48;;;;;;;45.88;14.10;;;4.20;99.90;;;;;;6132669;23;20049;-84
2023/02/04 07:19:36;;;;;;;38.05;13.68;;;4.20;99.90;;;;;;6153095;23;20040;-83
2023/02/04 07:22:23;;;;;;;45.17;14.43;;;4.20;99.90;;;;;;6154074;23;20079;-83
2023/02/04 07:25:14;;;;;;;52.25;14.50;;;4.20;99.90;;;;;;6154248;23;20115;-83
2023/02/04 07:28:04;;;;;;;52.13;16.63;;;4.30;99.90;;;;;;6153236;23;20021;-85
2023/02/04 07:30:51;;;;;;;49.10;15.50;;;4.30;99.90;;;;;;6133295;23;20161;-84
2023/02/04 07:33:39;;;;;;;54.35;15.63;;;4.30;99.90;;;;;;6133843;23;20388;-82
2023/02/04 07:36:32;;;;;;;48.28;15.02;;;4.20;99.90;;;;;;6153443;23;20025;-84
2023/02/04 07:39:20;;;;;;;55.83;14.88;;;4.20;99.90;;;;;;6154898;23;20025;-83
2023/02/04 07:42:07;;;;;;;56.70;15.73;;;4.30;99.90;;;;;;6134039;23;20033;-83
2023/02/04 07:44:55;;;;;;;41.00;14.90;;;4.20;99.90;;;;;;6133358;23;20336;-82
2023/02/04 07:47:48;;;;;;;48.03;15.50;;;4.20;99.90;;;;;;6160843;23;20115;-84
2023/02/04 07:50:35;;;;;;;66.40;16.23;;;4.20;99.90;;;;;;6154287;23;20088;-83
2023/02/04 07:53:23;;;;;;;57.40;15.90;;;4.20;99.90;;;;;;6153977;23;20117;-81
2023/02/04 07:56:10;;;;;;;57.42;17.02;;;4.20;99.90;;;;;;6153270;23;20026;-83
2023/02/04 07:58:57;;;;;;;65.93;17.92;;;4.20;99.90;;;;;;6153701;23;20026;-84
2023/02/04 08:01:46;;;;;;;47.30;16.30;;;4.20;99.90;;;;;;6154280;23;20147;-84
2023/02/04 08:04:34;;;;;;;53.15;16.67;;;4.20;99.90;;;;;;6152579;23;20037;-82
2023/02/04 08:07:21;;;;;;;49.78;16.10;;;4.20;99.90;;;;;;6111861;23;20027;-83
2023/02/04 08:10:10;;;;;;;48.75;16.52;;;4.30;99.90;;;;;;6152964;23;20032;-81
2023/02/04 08:12:57;;;;;;;46.97;15.93;;;4.30;99.90;;;;;;6156454;23;20036;-82
2023/02/04 08:15:44;;;;;;;60.55;17.48;;;4.40;99.90;;;;;;6154454;23;20428;-80
2023/02/04 08:18:31;;;;;;;57.13;17.33;;;4.40;99.90;;;;;;6153788;23;20025;-82
2023/02/04 08:21:19;;;;;;;59.00;16.38;;;4.50;99.90;;;;;;6155961;23;20131;-82
2023/02/04 08:24:06;;;;;;;57.72;17.52;;;4.60;99.90;;;;;;6152798;23;20037;-83
2023/02/04 08:26:57;;;;;;;50.15;16.30;;;4.60;99.90;;;;;;6154767;23;20025;-82
2023/02/04 08:29:44;;;;;;;54.03;16.70;;;4.70;99.90;;;;;;6131603;23;20127;-80
2023/02/04 08:32:34;;;;;;;50.55;15.60;;;4.70;99.90;;;;;;6153571;23;20036;-81
2023/02/04 08:35:21;;;;;;;50.80;14.75;;;4.80;99.90;;;;;;6161207;23;20041;-83
2023/02/04 08:38:09;;;;;;;48.22;15.77;;;4.90;99.90;;;;;;6135070;23;20028;-80
2023/02/04 08:40:56;;;;;;;45.88;14.25;;;4.80;99.90;;;;;;6155990;23;20029;-82
2023/02/04 08:43:46;;;;;;;45.95;14.80;;;4.90;99.90;;;;;;6152814;23;20160;-81
2023/02/04 08:46:33;;;;;;;31.17;11.95;;;5.00;99.90;;;;;;6155082;23;20053;-82
2023/02/04 08:49:22;;;;;;;49.03;12.65;;;5.00;99.90;;;;;;6152833;23;20037;-84
2023/02/04 08:52:09;;;;;;;36.22;12.30;;;5.10;99.90;;;;;;6153343;23;20248;-81
2023/02/04 08:54:59;;;;;;;44.35;13.13;;;5.20;99.90;;;;;;6153013;23;20021;-83
2023/02/04 08:57:46;;;;;;;37.08;12.77;;;5.40;99.90;;;;;;6152253;23;20026;-81
2023/02/04 09:00:33;;;;;;;37.20;12.35;;;5.60;99.90;;;;;;6153346;23;20025;-82
2023/02/04 09:03:21;;;;;;;38.63;12.88;;;5.80;99.90;;;;;;6154321;23;20040;-83
2023/02/04 09:06:08;;;;;;;32.97;11.45;;;5.90;99.90;;;;;;6153318;23;20085;-82
2023/02/04 09:08:56;;;;;;;32.13;10.48;;;5.90;99.90;;;;;;6154188;23;20036;-83
2023/02/04 09:11:45;;;;;;;32.28;10.20;;;5.90;99.90;;;;;;6154013;23;20560;-83
2023/02/04 09:14:32;;;;;;;26.52;8.70;;;5.90;99.90;;;;;;6153505;23;20116;-82
2023/02/04 09:17:19;;;;;;;31.05;8.65;;;5.90;99.90;;;;;;6154071;23;20705;-82
2023/02/04 09:20:06;;;;;;;25.90;9.02;;;5.90;99.90;;;;;;6152886;23;20041;-81
2023/02/04 09:22:54;;;;;;;23.80;8.75;;;5.90;99.90;;;;;;6157196;23;20053;-82
2023/02/04 09:25:43;;;;;;;23.65;8.45;;;6.20;99.90;;;;;;6158412;23;20037;-83
2023/02/04 09:28:32;;;;;;;22.33;8.50;;;6.40;99.90;;;;;;6156537;23;20091;-81
2023/02/04 09:31:22;;;;;;;27.48;8.20;;;6.50;99.90;;;;;;6153447;23;20451;-82
2023/02/04 09:34:09;;;;;;;21.00;6.47;;;6.60;99.90;;;;;;6134187;23;20029;-82
2023/02/04 09:36:57;;;;;;;26.48;7.25;;;6.50;99.90;;;;;;6153852;23;20026;-82
2023/02/04 09:39:46;;;;;;;20.77;6.10;;;6.40;99.90;;;;;;6132348;23;20341;-81
2023/02/04 09:42:36;;;;;;;25.23;6.03;;;6.40;99.90;;;;;;6135785;23;20026;-81
2023/02/04 09:45:29;;;;;;;20.75;5.43;;;6.60;99.90;;;;;;6158839;23;20405;-80
2023/02/04 09:48:17;;;;;;;21.25;5.38;;;7.00;99.90;;;;;;6162265;23;20052;-79
2023/02/04 09:51:07;;;;;;;22.60;5.93;;;7.60;99.90;;;;;;6139579;23;20021;-81
2023/02/04 09:54:17;;;;;;;;;;;8.20;99.90;;;;;;6142538;23;20406;-81
2023/02/04 09:57:17;;;;;;;14.05;3.92;;;8.50;99.90;;;;;;6134370;23;19917;-83
2023/02/04 10:00:14;;;;;;;14.85;3.90;;;8.90;99.90;;;;;;6154464;23;20021;-83
2023/02/04 10:03:02;;;;;;;19.27;4.10;;;8.90;99.90;;;;;;6165182;23;20034;-81
2023/02/04 10:05:50;;;;;;;28.33;4.88;;;8.50;99.90;;;;;;6154112;23;20025;-81
2023/02/04 10:08:44;;;;;;;21.50;4.78;;;8.00;99.90;;;;;;6160892;23;20025;-82
2023/02/04 10:11:36;;;;;;;17.42;4.60;;;7.50;99.90;;;;;;6139075;23;20117;-80
2023/02/04 10:14:27;;;;;;;20.25;5.10;;;7.10;99.90;;;;;;6156102;23;20104;-81
2023/02/04 10:17:19;;;;;;;23.05;4.93;;;7.00;99.90;;;;;;6135846;23;20033;-81
2023/02/04 10:20:14;;;;;;;15.30;4.55;;;6.90;99.90;;;;;;6133618;23;20084;-82
2023/02/04 10:23:09;;;;;;;20.75;4.20;;;6.70;81.10;;;;;;6156339;23;20056;-81
2023/02/04 10:26:03;;;;;;;24.17;5.07;;;6.50;41.10;;;;;;6136164;23;20556;-80
2023/02/04 10:28:56;;;;;;;15.85;4.00;;;6.30;39.10;;;;;;6155597;23;20404;-80
2023/02/04 10:31:46;;;;;;;18.58;4.13;;;6.20;21.10;;;;;;6154517;23;20025;-81
2023/02/04 10:34:39;;;;;;;15.32;4.22;;;6.10;1.00;;;;;;6157230;23;20051;-82
2023/02/04 10:37:26;;;;;;;15.95;3.88;;;6.10;1.00;;;;;;6156390;23;20397;-82
2023/02/04 10:40:33;;;;;;;17.23;4.03;;;6.10;1.00;;;;;;6155183;23;20040;-81
2023/02/04 10:43:24;;;;;;;18.83;3.60;;;6.20;1.00;;;;;;6156150;23;20040;-82
2023/02/04 10:46:11;;;;;;;14.50;4.03;;;6.40;1.00;;;;;;6155707;23;20037;-82
2023/02/04 10:49:02;;;;;;;18.58;5.22;;;6.80;1.00;;;;;;6154604;23;20302;-82
2023/02/04 10:51:51;;;;;;;15.88;4.63;;;6.90;99.90;;;;;;6155286;23;20399;-80
2023/02/04 10:54:39;;;;;;;14.90;3.75;;;7.20;99.90;;;;;;6155918;23;20424;-82
2023/02/04 10:57:30;;;;;;;15.35;3.78;;;7.50;99.90;;;;;;6163422;23;20032;-80
2023/02/04 11:00:23;;;;;;;19.15;4.07;;;8.60;99.90;;;;;;6155835;23;20096;-80
2023/02/04 11:03:26;;;;;;;14.85;3.28;;;10.90;99.90;;;;;;6155553;23;20030;-80
2023/02/04 11:06:20;;;;;;;16.88;3.45;;;12.00;1.00;;;;;;6117325;23;20025;-81
2023/02/04 11:09:13;;;;;;;14.05;3.38;;;12.50;1.00;;;;;;6156728;23;20021;-81
2023/02/04 11:12:01;;;;;;;12.30;3.20;;;12.00;99.90;;;;;;6154982;23;20432;-82
2023/02/04 11:14:57;;;;;;;15.20;3.50;;;10.30;99.90;;;;;;6175723;23;20076;-82
2023/02/04 11:17:46;;;;;;;15.18;3.60;;;9.10;99.90;;;;;;6140391;23;20049;-80
2023/02/04 11:20:35;;;;;;;20.00;4.15;;;8.60;99.90;;;;;;6166393;23;20029;-81
2023/02/04 11:23:25;;;;;;;16.90;3.75;;;8.10;99.90;;;;;;6187353;23;20025;-79
2023/02/04 11:26:17;;;;;;;17.40;4.18;;;7.70;99.90;;;;;;6169966;23;20033;-80
2023/02/04 11:29:05;;;;;;;16.25;3.50;;;7.60;99.90;;;;;;6175537;23;20025;-82
2023/02/04 11:31:58;;;;;;;22.70;4.28;;;7.50;1.00;;;;;;6174817;23;20021;-80
2023/02/04 11:34:55;;;;;;;16.63;3.88;;;7.20;1.00;;;;;;6166903;23;20029;-78
2023/02/04 11:37:43;;;;;;;22.90;4.72;;;6.90;1.00;;;;;;6167131;23;20036;-81
2023/02/04 11:40:38;;;;;;;22.58;3.97;;;7.10;1.00;;;;;;6164735;23;20052;-80
2023/02/04 11:43:26;;;;;;;22.52;4.15;;;7.20;1.00;;;;;;6156862;23;20161;-80
2023/02/04 11:46:16;;;;;;;16.55;3.15;;;7.40;1.00;;;;;;6155374;23;20045;-80
2023/02/04 11:49:12;;;;;;;22.55;3.88;;;7.60;1.00;;;;;;6154046;23;20104;-80
2023/02/04 11:52:12;;;;;;;24.45;4.45;;;7.60;1.00;;;;;;6154099;23;20124;-80
2023/02/04 11:55:02;;;;;;;22.02;3.70;;;7.60;1.00;;;;;;6156271;23;20440;-80
2023/02/04 11:57:54;;;;;;;12.50;4.18;;;7.70;1.00;;;;;;6154269;23;20022;-80
2023/02/04 12:00:42;;;;;;;20.40;4.18;;;7.90;1.00;;;;;;6155452;23;20037;-79
2023/02/04 12:03:33;;;;;;;21.85;4.40;;;8.30;1.00;;;;;;6174903;23;20104;-81
2023/02/04 12:06:29;;;;;;;20.00;4.13;;;8.90;1.00;;;;;;6154876;23;20136;-83
2023/02/04 12:09:16;;;;;;;16.55;4.00;;;9.20;1.00;;;;;;6134174;23;20036;-80
2023/02/04 12:12:06;;;;;;;12.77;3.42;;;9.20;99.90;;;;;;6154598;23;20412;-80
2023/02/04 12:15:25;;;;;;;18.17;3.63;;;9.10;99.90;;;;;;6183184;23;20021;-80
2023/02/04 12:18:13;;;;;;;21.67;3.72;;;8.70;99.90;;;;;;6184523;23;20060;-80
2023/02/04 12:21:03;;;;;;;19.52;4.15;;;8.70;99.90;;;;;;6183460;23;20029;-80
2023/02/04 12:23:50;;;;;;;17.92;3.65;;;8.40;99.90;;;;;;6185037;23;20029;-82
2023/02/04 12:26:37;;;;;;;22.80;4.53;;;8.00;99.90;;;;;;6184824;23;20029;-80
2023/02/04 12:29:24;;;;;;;18.65;3.47;;;7.90;99.90;;;;;;6184062;23;20084;-82
2023/02/04 12:32:11;;;;;;;18.17;3.58;;;7.70;99.90;;;;;;6162395;23;20025;-81
2023/02/04 12:34:59;;;;;;;22.55;3.92;;;7.60;99.90;;;;;;6163453;23;20021;-82
2023/02/04 12:37:48;;;;;;;12.93;3.92;;;7.40;99.90;;;;;;6185009;23;20025;-81
2023/02/04 12:40:38;;;;;;;20.52;3.78;;;7.40;99.90;;;;;;6183995;23;20032;-81
2023/02/04 12:43:25;;;;;;;15.60;3.50;;;7.60;99.90;;;;;;6184295;23;20031;-80
2023/02/04 12:46:14;;;;;;;17.48;4.10;;;8.00;1.00;;;;;;6185552;23;20035;-80
2023/02/04 12:49:04;;;;;;;23.73;4.15;;;8.20;1.00;;;;;;6184009;23;20036;-81
2023/02/04 12:51:51;;;;;;;10.90;2.75;;;8.50;99.90;;;;;;6184087;23;20037;-81
2023/02/04 12:54:38;;;;;;;20.98;3.88;;;8.80;99.90;;;;;;6161225;23;20025;-80
2023/02/04 12:57:26;;;;;;;21.50;3.60;;;10.30;99.90;;;;;;6183159;23;20146;-81
2023/02/04 13:00:15;;;;;;;18.30;3.85;;;11.80;99.90;;;;;;6183713;23;20049;-81
2023/02/04 13:03:04;;;;;;;14.48;2.97;;;12.90;99.90;;;;;;6165435;23;20061;-80
2023/02/04 13:05:51;;;;;;;15.13;3.90;;;13.90;99.90;;;;;;6183604;23;20569;-80
2023/02/04 13:08:40;;;;;;;12.18;3.38;;;13.60;99.90;;;;;;6163699;23;20051;-80
2023/02/04 13:11:28;;;;;;;16.23;3.55;;;12.20;99.90;;;;;;6186179;23;20024;-81
2023/02/04 13:14:19;;;;;;;17.67;3.53;;;11.30;99.90;;;;;;6161114;23;20476;-81
2023/02/04 13:17:08;;;;;;;11.88;3.22;;;10.80;99.90;;;;;;6155998;23;20029;-80
2023/02/04 13:19:59;;;;;;;12.85;2.78;;;10.30;99.90;;;;;;6154288;23;20025;-81
2023/02/04 13:22:47;;;;;;;13.88;3.08;;;10.20;99.90;;;;;;6151883;23;20049;-81
2023/02/04 13:25:34;;;;;;;15.95;3.63;;;10.60;99.90;;;;;;6154059;23;20160;-80
2023/02/04 13:28:21;;;;;;;16.77;4.30;;;11.00;99.90;;;;;;6153901;23;20041;-79
2023/02/04 13:31:15;;;;;;;12.20;2.90;;;11.10;99.90;;;;;;6152551;23;20330;-79
2023/02/04 13:34:03;;;;;;;14.82;2.83;;;11.00;99.90;;;;;;6153891;23;20346;-80
2023/02/04 13:36:57;;;;;;;11.25;2.72;;;11.50;99.90;;;;;;6154491;23;20083;-80
2023/02/04 13:39:44;;;;;;;12.85;2.88;;;12.90;99.90;;;;;;6153790;23;20149;-81
2023/02/04 13:42:34;;;;;;;10.43;2.45;;;13.10;99.90;;;;;;6133114;23;20037;-81
2023/02/04 13:45:21;;;;;;;8.70;2.40;;;13.60;99.90;;;;;;6155056;23;20029;-81
2023/02/04 13:48:08;;;;;;;12.50;2.90;;;13.60;99.90;;;;;;6135871;23;20025;-79
2023/02/04 13:50:55;;;;;;;16.40;3.05;;;13.30;99.90;;;;;;6154706;23;20104;-81
2023/02/04 13:53:45;;;;;;;13.20;2.90;;;12.80;99.90;;;;;;6154777;23;20388;-80
2023/02/04 13:56:32;;;;;;;11.00;2.70;;;12.20;99.90;;;;;;6154697;23;20072;-80
2023/02/04 13:59:22;;;;;;;13.13;2.70;;;11.30;99.90;;;;;;6155098;23;20045;-80
2023/02/04 14:02:09;;;;;;;18.20;3.22;;;10.30;99.90;;;;;;6155708;23;20119;-80
2023/02/04 14:04:57;;;;;;;13.63;2.67;;;9.80;99.90;;;;;;6156640;23;20043;-80
2023/02/04 14:07:44;;;;;;;15.27;3.17;;;9.70;99.90;;;;;;6156213;23;20417;-81
2023/02/04 14:10:31;;;;;;;12.35;2.97;;;9.70;99.90;;;;;;6136302;23;20040;-80
2023/02/04 14:13:19;;;;;;;14.18;3.30;;;9.40;99.90;;;;;;6158827;23;20065;-78
2023/02/04 14:16:08;;;;;;;17.80;3.22;;;8.80;99.90;;;;;;6157625;23;20479;-81
2023/02/04 14:18:57;;;;;;;17.23;3.42;;;8.60;99.90;;;;;;6153628;23;20041;-80
2023/02/04 14:21:45;;;;;;;14.77;3.85;;;8.40;99.90;;;;;;6154429;23;20397;-81
2023/02/04 14:24:33;;;;;;;11.27;3.42;;;8.30;99.90;;;;;;6153000;23;20029;-81
2023/02/04 14:27:20;;;;;;;13.93;2.97;;;8.60;99.90;;;;;;6154620;23;20555;-79
2023/02/04 14:30:19;;;;;;;11.30;2.90;;;9.10;99.90;;;;;;6153050;23;20557;-81
2023/02/04 14:33:08;;;;;;;11.10;2.47;;;9.20;99.90;;;;;;6155064;23;20042;-80
2023/02/04 14:35:55;;;;;;;9.32;2.60;;;8.90;99.90;;;;;;6155391;23;20036;-81
2023/02/04 14:38:42;;;;;;;14.00;3.42;;;8.50;99.90;;;;;;6156246;23;20021;-82
2023/02/04 14:41:30;;;;;;;13.90;3.22;;;8.00;99.90;;;;;;6154001;23;20044;-79
2023/02/04 14:44:19;;;;;;;12.52;3.00;;;7.70;99.90;;;;;;6133278;23;20037;-81
2023/02/04 14:47:09;;;;;;;15.52;3.10;;;7.90;99.90;;;;;;6132876;23;20191;-81